Terminal Aerodrome Forecast
Issued by NWS

Home | Current Version | Previous Version | Text Only | Print | Product List | Glossary On
Versions: 1 2 3 4 5 6 7 8 9 10 11 12 13 14
000
FTUS45 KTFX 181737
TAFHVR
TAF
KHVR 181737Z 1818/1918 32010KT P6SM VCSH SCT030 BKN090
     FM182000 33010KT P6SM VCSH BKN040
     FM190000 31008KT P6SM BKN050
     FM191200 08008KT 2SM -SN BR OVC025=

USA.gov is the U.S. government's official web portal to all federal, state and local government web resources and services.